Airfield :
LOGIN :

Register | Disclaimer

   EN    FR    IT 

 










Legend :    VFR   Marginal VFR   IFR   Intensive IFR   Very Intensive IFR
Visi :
Ceiling :
>= 8 km
>= 3000ft
5 to 8 km
1000 to 3000 ft
1500m to 5 km
500 to 1000 ft
800 to 1500m
200 to 500 ft
< 800m
< 200 ft
Symbols :   Thunderstorms  Fog  Heavy snow  Heavy precipitations  Wind > 20 kt
SIGMETs :     Misc.  Thunderstorms  Icing  Turbulence  Mountain Waves  Volcanic Ashes






- Airport Elevation : 791 ft
- IATA code : KRK


EPKK - Krakow-Balice

CURRENT METAR :
  • 011530Z 24013KT 7000 -SHRASN BKN007 OVC010CB 02/01 Q1008

EXPIRED METARs :
  • 011500Z 24017KT 9999 -SHRA BKN012CB 03/01 Q1008
  • 011430Z 23013KT 9999 -SHRA SCT015CB BKN020 04/01 Q1008
  • 011400Z 24013KT 9999 BKN017 BKN026 03/01 Q1008
  • 011330Z 24012KT 9999 -SHRA SCT014CB BKN031 04/01 Q1008
  • 011300Z 24015KT 9999 SCT015 SCT028 04/01 Q1009
  • 011230Z 24013KT 9999 FEW016CB BKN020 04/01 Q1009

TAF TAF EPKK
Valid from the 01 at 15:00 until the 02 at 15:00 UTC


011430Z 0115/0215 25016KT 9999 SCT015 BKN020
TEMPO 0115/0121 25020G30KT 4500 SHRASN BKN006 BKN014CB
TEMPO 0121/0205 25018G28KT 2500 SHRASN BKN005 BKN014CB
BECMG 0205/0207 27018G28KT
BECMG 0207/0209 26022G38KT 2500 RASN BKN005 OVC010
BECMG 0210/0212 9999 NSW BKN015
TEMPO 0212/0215 2000 SHSN BKN005 BKN012CB
BECMG 0214/0215 29018G28KT



MET'MAP, your aeronautical weather chart ! - Copyright ORBIFLY December 2007 - Disclaimer

ORBIFLY MET'MAP TEAM :

Programming & Development : Alexandra Zaïnal
Original concept : Baudouin d'Aumeries
Technical & hardware support : Manuel Goepfert
Assistance : Marc-Olivier Méhu




SOURCES & CREDITS :

   NOAA